Time;durP1;ratioP1;P1;durP2;ratioP2;P2;SDS_P1;SDS_P2;PMS_P1;PMS_P2;Temp;Humidity;BMP_temperature;BMP_pressure;BME280_temperature;BME280_humidity;BME280_pressure;Samples;Min_cycle;Max_cycle;Signal;HPM_P1;HPM_P2
2023/03/25 00:00:29;;;;;;;12.40;2.33;;;;;;;;;;5005300;28;20209;-70
2023/03/25 00:02:54;;;;;;;8.47;1.80;;;;;;;;;;5003739;28;20201;-70
2023/03/25 00:05:20;;;;;;;9.90;2.13;;;;;;;;;;5004727;28;20200;-70
2023/03/25 00:07:47;;;;;;;7.10;2.43;;;;;;;;;;5003820;28;20640;-69
2023/03/25 00:10:14;;;;;;;6.90;1.87;;;;;;;;;;5001863;28;20440;-69
2023/03/25 00:12:39;;;;;;;8.00;2.53;;;;;;;;;;5004562;28;20448;-70
2023/03/25 00:15:05;;;;;;;8.10;1.93;;;;;;;;;;5001387;28;20492;-70
2023/03/25 00:17:30;;;;;;;7.87;1.93;;;;;;;;;;5004812;28;20197;-69
2023/03/25 00:20:09;;;;;;;5.87;2.00;;;;;;;;;;5005544;28;20493;-70
2023/03/25 00:22:39;;;;;;;19.10;2.50;;;;;;;;;;5005359;28;20672;-69
2023/03/25 00:25:05;;;;;;;12.80;2.03;;;;;;;;;;5003682;28;20541;-70
2023/03/25 00:27:30;;;;;;;8.80;2.30;;;;;;;;;;5003022;28;20467;-70
2023/03/25 00:29:56;;;;;;;7.30;1.90;;;;;;;;;;5000666;28;20470;-69
2023/03/25 00:32:21;;;;;;;9.87;2.27;;;;;;;;;;5002907;28;20209;-69
2023/03/25 00:34:46;;;;;;;12.77;2.17;;;;;;;;;;5018512;28;20224;-69
2023/03/25 00:37:12;;;;;;;8.80;2.30;;;;;;;;;;5002120;28;20608;-70
2023/03/25 00:39:37;;;;;;;8.30;1.93;;;;;;;;;;5003661;28;20177;-70
2023/03/25 00:42:03;;;;;;;14.37;2.73;;;;;;;;;;5001243;28;20247;-69
2023/03/25 00:44:29;;;;;;;9.20;1.83;;;;;;;;;;5007237;28;20184;-70
2023/03/25 00:46:54;;;;;;;11.93;2.63;;;;;;;;;;5006731;28;20181;-70
2023/03/25 00:49:23;;;;;;;11.90;2.30;;;;;;;;;;5000646;28;22669;-70
2023/03/25 00:51:49;;;;;;;7.80;2.67;;;;;;;;;;5002188;28;20186;-70
2023/03/25 00:54:15;;;;;;;9.37;2.10;;;;;;;;;;5003961;28;20478;-70
2023/03/25 00:56:41;;;;;;;7.90;2.60;;;;;;;;;;5002070;28;20180;-70
2023/03/25 00:59:06;;;;;;;10.83;1.90;;;;;;;;;;4997894;28;20431;-70
2023/03/25 01:01:32;;;;;;;11.07;2.20;;;;;;;;;;5005540;28;20200;-69
2023/03/25 01:03:58;;;;;;;6.97;1.93;;;;;;;;;;5002644;28;20212;-69
2023/03/25 01:06:33;;;;;;;13.23;3.03;;;;;;;;;;5003465;28;20189;-70
2023/03/25 01:09:00;;;;;;;11.27;2.70;;;;;;;;;;5002705;28;20466;-70
2023/03/25 01:11:27;;;;;;;9.63;2.30;;;;;;;;;;5003047;28;20965;-69
2023/03/25 01:13:53;;;;;;;14.20;2.50;;;;;;;;;;5006985;28;20474;-70
2023/03/25 01:16:19;;;;;;;10.20;2.00;;;;;;;;;;5010229;28;20418;-70
2023/03/25 01:18:44;;;;;;;9.27;2.83;;;;;;;;;;5010321;28;20408;-70
2023/03/25 01:21:09;;;;;;;10.73;2.80;;;;;;;;;;5012197;28;20209;-70
2023/03/25 01:23:34;;;;;;;12.30;2.83;;;;;;;;;;5009912;28;20289;-70
2023/03/25 01:26:00;;;;;;;10.67;2.40;;;;;;;;;;5012393;28;20185;-70
2023/03/25 01:28:26;;;;;;;12.53;2.20;;;;;;;;;;5009895;28;20731;-70
2023/03/25 01:30:58;;;;;;;8.87;2.47;;;;;;;;;;5025296;28;20188;-69
2023/03/25 01:33:23;;;;;;;11.17;3.13;;;;;;;;;;5006788;28;20554;-70
2023/03/25 01:35:49;;;;;;;11.53;2.57;;;;;;;;;;5010839;28;20510;-69
2023/03/25 01:38:14;;;;;;;15.53;3.60;;;;;;;;;;5011750;28;20200;-70
2023/03/25 01:40:39;;;;;;;10.80;3.00;;;;;;;;;;5011019;28;20663;-70
2023/03/25 01:43:08;;;;;;;12.67;3.07;;;;;;;;;;5005010;28;20201;-69
2023/03/25 01:45:33;;;;;;;9.10;2.10;;;;;;;;;;5005612;28;20309;-69
2023/03/25 01:48:09;;;;;;;15.83;2.70;;;;;;;;;;5009273;28;20518;-70
2023/03/25 01:50:35;;;;;;;13.40;2.83;;;;;;;;;;5005091;28;20196;-70
2023/03/25 01:53:02;;;;;;;12.40;2.67;;;;;;;;;;5000895;28;28272;-70
2023/03/25 01:55:28;;;;;;;9.77;3.00;;;;;;;;;;5005460;28;20471;-70
2023/03/25 01:57:55;;;;;;;12.40;2.50;;;;;;;;;;5004552;28;20851;-70
2023/03/25 02:00:21;;;;;;;14.40;2.60;;;;;;;;;;5002506;28;20435;-70
2023/03/25 02:02:47;;;;;;;11.50;3.20;;;;;;;;;;5005371;28;20486;-70
2023/03/25 02:05:21;;;;;;;12.23;2.73;;;;;;;;;;5001646;28;20939;-70
2023/03/25 02:07:48;;;;;;;11.67;2.70;;;;;;;;;;5005012;28;20553;-70
2023/03/25 02:10:14;;;;;;;11.27;2.20;;;;;;;;;;5006560;28;20444;-70
2023/03/25 02:12:40;;;;;;;9.73;2.50;;;;;;;;;;5007398;28;21028;-70
2023/03/25 02:15:06;;;;;;;11.50;2.80;;;;;;;;;;5005959;28;20480;-70
2023/03/25 02:17:43;;;;;;;8.30;2.23;;;;;;;;;;4998799;28;20919;-69
2023/03/25 02:20:41;;;;;;;9.27;2.27;;;;;;;;;;5001448;28;20489;-70
2023/03/25 02:23:27;;;;;;;13.57;2.33;;;;;;;;;;4989155;28;20471;-69
2023/03/25 02:26:04;;;;;;;13.33;2.70;;;;;;;;;;5021083;28;20476;-70
2023/03/25 02:28:38;;;;;;;14.70;3.00;;;;;;;;;;5005079;28;20431;-70
2023/03/25 02:31:24;;;;;;;8.47;1.93;;;;;;;;;;5008021;28;20486;-70
2023/03/25 02:34:16;;;;;;;8.90;2.10;;;;;;;;;;5002895;28;21013;-70
2023/03/25 02:36:47;;;;;;;8.73;2.40;;;;;;;;;;4994988;28;20440;-70
2023/03/25 02:39:27;;;;;;;8.90;2.43;;;;;;;;;;5004842;28;20455;-70
2023/03/25 02:42:04;;;;;;;9.13;2.47;;;;;;;;;;5003198;28;20430;-70
2023/03/25 02:44:30;;;;;;;15.53;2.87;;;;;;;;;;5001752;28;20910;-70
2023/03/25 02:46:57;;;;;;;10.70;2.77;;;;;;;;;;5006153;28;20454;-70
2023/03/25 02:49:28;;;;;;;15.30;3.40;;;;;;;;;;5004931;28;20246;-69
2023/03/25 02:52:07;;;;;;;13.03;3.40;;;;;;;;;;5004069;28;20467;-70
2023/03/25 02:54:35;;;;;;;9.77;2.50;;;;;;;;;;5002395;28;20474;-70
2023/03/25 02:57:01;;;;;;;16.17;2.90;;;;;;;;;;5019068;28;20439;-70
2023/03/25 02:59:28;;;;;;;14.60;3.10;;;;;;;;;;5002692;28;20432;-69
2023/03/25 03:01:57;;;;;;;7.10;2.50;;;;;;;;;;5003717;28;20173;-69
2023/03/25 03:04:22;;;;;;;18.07;3.13;;;;;;;;;;5005905;28;20460;-70
2023/03/25 03:06:47;;;;;;;16.90;4.30;;;;;;;;;;5005573;28;20471;-70
2023/03/25 03:09:26;;;;;;;17.27;3.13;;;;;;;;;;5003716;28;20212;-70
2023/03/25 03:12:08;;;;;;;17.03;3.83;;;;;;;;;;5006545;28;20181;-70
2023/03/25 03:14:43;;;;;;;17.70;3.53;;;;;;;;;;5003496;28;20614;-69
2023/03/25 03:17:16;;;;;;;16.50;2.83;;;;;;;;;;4988772;28;21198;-69
2023/03/25 03:19:51;;;;;;;16.30;2.57;;;;;;;;;;5002578;28;20423;-70
2023/03/25 03:22:16;;;;;;;11.80;3.17;;;;;;;;;;5006154;28;20444;-70
2023/03/25 03:25:02;;;;;;;9.20;2.97;;;;;;;;;;5006764;28;20435;-70
2023/03/25 03:27:33;;;;;;;14.67;2.80;;;;;;;;;;4988396;28;20196;-69
2023/03/25 03:30:07;;;;;;;13.37;3.37;;;;;;;;;;5002466;28;21228;-70
2023/03/25 03:32:42;;;;;;;21.93;4.30;;;;;;;;;;5001138;28;20461;-70
2023/03/25 03:35:19;;;;;;;19.27;3.03;;;;;;;;;;5004188;28;20487;-70
2023/03/25 03:37:49;;;;;;;10.63;2.80;;;;;;;;;;4999491;28;20652;-69
2023/03/25 03:40:16;;;;;;;9.30;2.57;;;;;;;;;;5002055;28;20454;-71
2023/03/25 03:42:45;;;;;;;11.17;3.40;;;;;;;;;;5003919;28;20502;-70
2023/03/25 03:45:17;;;;;;;18.20;4.23;;;;;;;;;;5003775;28;20943;-70
2023/03/25 03:47:46;;;;;;;19.03;3.53;;;;;;;;;;5004104;28;20448;-70
2023/03/25 03:50:14;;;;;;;14.23;3.13;;;;;;;;;;5004389;28;20436;-70
2023/03/25 03:52:46;;;;;;;20.67;3.57;;;;;;;;;;4993158;28;20468;-70
2023/03/25 03:55:21;;;;;;;17.33;4.00;;;;;;;;;;5003374;28;20478;-70
2023/03/25 03:57:51;;;;;;;19.10;3.93;;;;;;;;;;5004994;28;20426;-70
2023/03/25 04:00:16;;;;;;;21.77;4.60;;;;;;;;;;5012100;28;20491;-70
2023/03/25 04:02:46;;;;;;;18.47;4.10;;;;;;;;;;5002665;28;20455;-70
2023/03/25 04:05:13;;;;;;;23.60;4.07;;;;;;;;;;5003255;28;20689;-70
2023/03/25 04:07:41;;;;;;;17.50;4.07;;;;;;;;;;5004180;28;20431;-70
2023/03/25 04:10:13;;;;;;;20.33;4.67;;;;;;;;;;4998980;28;20440;-70
2023/03/25 04:12:39;;;;;;;21.23;3.83;;;;;;;;;;5000760;28;20509;-70
2023/03/25 04:15:05;;;;;;;25.77;5.20;;;;;;;;;;4999782;28;20888;-70
2023/03/25 04:17:31;;;;;;;20.23;3.80;;;;;;;;;;5003884;28;20444;-71
2023/03/25 04:19:57;;;;;;;15.03;3.40;;;;;;;;;;5005460;28;20184;-70
2023/03/25 04:22:23;;;;;;;13.53;3.70;;;;;;;;;;5006980;28;20933;-70
2023/03/25 04:24:50;;;;;;;17.20;3.63;;;;;;;;;;5005281;28;20420;-71
2023/03/25 04:27:16;;;;;;;17.17;3.47;;;;;;;;;;5006071;28;20196;-70
2023/03/25 04:29:42;;;;;;;15.23;2.87;;;;;;;;;;5004807;28;20994;-71
2023/03/25 04:32:09;;;;;;;17.10;3.70;;;;;;;;;;5004953;28;20227;-70
2023/03/25 04:34:34;;;;;;;14.03;3.10;;;;;;;;;;5003040;28;20478;-70
2023/03/25 04:37:00;;;;;;;14.83;3.20;;;;;;;;;;5006476;28;20449;-71
2023/03/25 04:39:28;;;;;;;14.40;3.70;;;;;;;;;;5006180;28;20173;-70
2023/03/25 04:41:55;;;;;;;15.60;3.33;;;;;;;;;;5003706;28;21232;-70
2023/03/25 04:44:22;;;;;;;13.50;3.40;;;;;;;;;;5003781;28;20423;-70
2023/03/25 04:46:47;;;;;;;14.40;3.20;;;;;;;;;;5003693;28;20544;-71
2023/03/25 04:49:22;;;;;;;20.40;3.63;;;;;;;;;;5003230;28;20946;-70
2023/03/25 04:51:51;;;;;;;15.13;3.40;;;;;;;;;;5005945;28;20184;-71
2023/03/25 04:54:19;;;;;;;14.83;3.00;;;;;;;;;;5004597;28;20463;-70
2023/03/25 04:56:46;;;;;;;14.07;2.87;;;;;;;;;;4999603;28;20430;-71
2023/03/25 04:59:12;;;;;;;13.23;2.77;;;;;;;;;;5002039;28;20435;-71
2023/03/25 05:01:40;;;;;;;13.57;2.63;;;;;;;;;;5006490;28;20570;-70
2023/03/25 05:04:06;;;;;;;11.23;2.53;;;;;;;;;;5002803;28;20193;-71
2023/03/25 05:06:32;;;;;;;8.93;2.37;;;;;;;;;;5004087;28;20978;-70
2023/03/25 05:09:00;;;;;;;14.50;3.23;;;;;;;;;;5002536;28;20435;-70
2023/03/25 05:11:25;;;;;;;9.80;2.77;;;;;;;;;;5003591;28;20443;-70
2023/03/25 05:13:51;;;;;;;17.37;3.23;;;;;;;;;;5003489;28;20540;-70
2023/03/25 05:16:16;;;;;;;15.77;3.10;;;;;;;;;;5003959;28;20181;-70
2023/03/25 05:18:41;;;;;;;17.90;4.90;;;;;;;;;;5000058;28;20242;-70
2023/03/25 05:21:07;;;;;;;15.73;3.40;;;;;;;;;;5007091;28;20186;-71
2023/03/25 05:23:32;;;;;;;15.70;4.07;;;;;;;;;;5008268;28;20204;-70
2023/03/25 05:25:58;;;;;;;16.10;3.23;;;;;;;;;;5005223;28;20268;-70
2023/03/25 05:28:23;;;;;;;14.27;3.40;;;;;;;;;;5003347;28;20177;-70
2023/03/25 05:30:48;;;;;;;13.17;3.40;;;;;;;;;;5005187;28;20661;-70
2023/03/25 05:33:15;;;;;;;13.30;3.00;;;;;;;;;;4999179;28;20221;-71
2023/03/25 05:35:41;;;;;;;11.83;3.00;;;;;;;;;;5003065;28;20231;-71
2023/03/25 05:38:07;;;;;;;13.70;3.07;;;;;;;;;;5008107;28;20424;-71
2023/03/25 05:40:33;;;;;;;11.93;3.30;;;;;;;;;;5006928;28;20541;-70
2023/03/25 05:42:58;;;;;;;10.60;3.03;;;;;;;;;;5009467;28;20620;-71
2023/03/25 05:45:24;;;;;;;11.90;3.07;;;;;;;;;;5008907;28;20945;-70
2023/03/25 05:47:49;;;;;;;15.80;3.30;;;;;;;;;;5007452;28;20181;-71
2023/03/25 05:50:15;;;;;;;14.53;3.27;;;;;;;;;;5009164;28;20216;-70
2023/03/25 05:52:41;;;;;;;12.70;3.43;;;;;;;;;;5008453;28;20877;-71
2023/03/25 05:55:09;;;;;;;20.13;3.83;;;;;;;;;;5020793;28;20205;-71
2023/03/25 05:57:35;;;;;;;14.83;3.10;;;;;;;;;;5008467;28;20254;-70
2023/03/25 06:00:00;;;;;;;12.40;3.20;;;;;;;;;;5008875;28;20515;-71
2023/03/25 06:02:25;;;;;;;13.37;3.37;;;;;;;;;;5007950;28;20211;-70
2023/03/25 06:04:51;;;;;;;14.83;3.23;;;;;;;;;;5008468;28;20197;-70
2023/03/25 06:07:19;;;;;;;15.33;3.83;;;;;;;;;;5009437;28;20727;-71
2023/03/25 06:09:53;;;;;;;19.20;4.07;;;;;;;;;;5010228;28;20644;-71
2023/03/25 06:12:19;;;;;;;12.67;3.13;;;;;;;;;;5006453;28;20499;-70
2023/03/25 06:14:45;;;;;;;17.80;4.10;;;;;;;;;;5010611;28;20551;-70
2023/03/25 06:17:14;;;;;;;14.47;3.27;;;;;;;;;;5009504;28;21578;-71
2023/03/25 06:19:41;;;;;;;13.37;2.70;;;;;;;;;;5009380;28;20400;-71
2023/03/25 06:22:08;;;;;;;14.67;3.83;;;;;;;;;;5009340;28;20633;-71
2023/03/25 06:24:33;;;;;;;15.13;3.97;;;;;;;;;;5008733;28;20427;-70
2023/03/25 06:26:59;;;;;;;16.23;3.93;;;;;;;;;;5009855;28;20415;-70
2023/03/25 06:29:24;;;;;;;12.47;3.23;;;;;;;;;;5007915;28;20267;-71
2023/03/25 06:31:49;;;;;;;18.53;3.90;;;;;;;;;;5005674;28;20600;-71
2023/03/25 06:34:14;;;;;;;15.20;3.57;;;;;;;;;;5008265;28;20216;-71
2023/03/25 06:36:40;;;;;;;17.97;4.53;;;;;;;;;;5003906;28;20260;-70
2023/03/25 06:39:05;;;;;;;12.87;3.60;;;;;;;;;;5006500;28;20183;-72
2023/03/25 06:41:31;;;;;;;15.53;3.67;;;;;;;;;;5007835;28;20215;-70
2023/03/25 06:43:56;;;;;;;11.57;3.27;;;;;;;;;;5008031;28;20201;-71
2023/03/25 06:46:21;;;;;;;12.40;3.33;;;;;;;;;;5007284;28;20227;-71
2023/03/25 06:48:46;;;;;;;13.67;3.50;;;;;;;;;;5007213;28;20185;-70
2023/03/25 06:51:12;;;;;;;15.07;3.63;;;;;;;;;;5006222;28;20232;-71
2023/03/25 06:53:37;;;;;;;16.83;4.13;;;;;;;;;;5008273;28;20209;-71
2023/03/25 06:56:02;;;;;;;17.60;3.83;;;;;;;;;;5006606;28;20181;-70
2023/03/25 06:58:33;;;;;;;17.73;4.00;;;;;;;;;;5006339;28;20546;-70
2023/03/25 07:01:02;;;;;;;16.23;4.10;;;;;;;;;;5005672;28;20177;-71
2023/03/25 07:03:27;;;;;;;13.13;3.77;;;;;;;;;;5006170;28;20440;-70
2023/03/25 07:05:53;;;;;;;16.57;4.70;;;;;;;;;;5007023;28;20457;-70
2023/03/25 07:08:18;;;;;;;14.40;3.97;;;;;;;;;;5005458;28;20177;-70
2023/03/25 07:10:43;;;;;;;19.37;4.20;;;;;;;;;;5005790;28;20644;-71
2023/03/25 07:13:09;;;;;;;18.80;4.53;;;;;;;;;;5004274;28;20201;-71
2023/03/25 07:15:35;;;;;;;16.80;4.13;;;;;;;;;;5002619;28;20201;-70
2023/03/25 07:18:00;;;;;;;26.43;4.37;;;;;;;;;;5006137;28;21080;-71
2023/03/25 07:20:25;;;;;;;21.20;4.77;;;;;;;;;;5006179;28;20188;-70
2023/03/25 07:22:52;;;;;;;20.00;3.50;;;;;;;;;;5007259;28;20240;-70
2023/03/25 07:25:17;;;;;;;11.60;2.90;;;;;;;;;;5004742;28;20217;-70
2023/03/25 07:27:43;;;;;;;12.20;3.03;;;;;;;;;;5003970;28;20455;-70
2023/03/25 07:30:08;;;;;;;14.47;2.70;;;;;;;;;;5005224;28;20842;-70
2023/03/25 07:32:33;;;;;;;10.23;2.47;;;;;;;;;;5016402;23;20229;-70
2023/03/25 07:34:59;;;;;;;14.57;2.70;;;;;;;;;;5033040;28;20206;-70
2023/03/25 07:37:24;;;;;;;13.93;4.30;;;;;;;;;;5005398;28;20567;-70
2023/03/25 07:39:50;;;;;;;13.00;2.63;;;;;;;;;;5016702;28;20232;-70
2023/03/25 07:42:15;;;;;;;18.50;3.17;;;;;;;;;;5005104;28;20652;-70
2023/03/25 07:44:40;;;;;;;16.63;3.30;;;;;;;;;;4985012;28;20201;-72
2023/03/25 07:47:05;;;;;;;15.13;3.60;;;;;;;;;;4995177;28;20181;-70
2023/03/25 07:49:31;;;;;;;18.07;3.30;;;;;;;;;;5005544;28;20239;-71
2023/03/25 07:51:56;;;;;;;18.23;4.60;;;;;;;;;;4994479;28;20189;-71
2023/03/25 07:54:23;;;;;;;19.07;4.30;;;;;;;;;;4990674;28;20220;-71
2023/03/25 07:56:48;;;;;;;25.33;4.33;;;;;;;;;;4987636;28;20778;-71
2023/03/25 07:59:13;;;;;;;26.47;4.80;;;;;;;;;;4989435;28;20519;-70
2023/03/25 08:01:39;;;;;;;21.43;4.83;;;;;;;;;;4992835;28;20188;-70
2023/03/25 08:04:04;;;;;;;20.40;3.80;;;;;;;;;;4989674;28;20258;-71
2023/03/25 08:06:30;;;;;;;21.53;4.30;;;;;;;;;;4993865;28;20189;-71
2023/03/25 08:08:55;;;;;;;17.50;4.33;;;;;;;;;;4988714;28;20186;-72
2023/03/25 08:11:20;;;;;;;13.70;3.10;;;;;;;;;;4985502;28;20908;-71
2023/03/25 08:13:46;;;;;;;17.00;2.77;;;;;;;;;;4988908;28;20293;-71
2023/03/25 08:16:12;;;;;;;10.03;2.10;;;;;;;;;;4989748;28;20277;-71
2023/03/25 08:18:37;;;;;;;10.77;2.80;;;;;;;;;;4977540;28;20173;-71
2023/03/25 08:21:03;;;;;;;9.00;2.17;;;;;;;;;;4985800;28;20522;-71
2023/03/25 08:23:28;;;;;;;5.20;1.40;;;;;;;;;;4991922;28;20227;-71
2023/03/25 08:25:53;;;;;;;4.37;1.37;;;;;;;;;;4995092;28;20216;-71
2023/03/25 08:28:22;;;;;;;8.20;2.70;;;;;;;;;;4978834;28;20204;-71
2023/03/25 08:30:53;;;;;;;7.40;1.97;;;;;;;;;;4979983;28;20203;-71
2023/03/25 08:33:19;;;;;;;10.07;2.23;;;;;;;;;;4984281;28;20510;-70
2023/03/25 08:35:44;;;;;;;8.67;2.10;;;;;;;;;;4988701;28;20507;-70
2023/03/25 08:38:09;;;;;;;8.07;2.50;;;;;;;;;;4978555;28;20648;-70
2023/03/25 08:40:35;;;;;;;9.83;2.50;;;;;;;;;;4986920;28;20660;-71
2023/03/25 08:43:02;;;;;;;11.23;2.47;;;;;;;;;;4987778;28;20196;-70
2023/03/25 08:45:28;;;;;;;18.20;3.03;;;;;;;;;;4988245;28;20189;-70
2023/03/25 08:47:53;;;;;;;7.60;2.13;;;;;;;;;;4983340;28;20490;-71
2023/03/25 08:50:18;;;;;;;14.93;3.37;;;;;;;;;;4987391;28;20571;-69
2023/03/25 08:52:44;;;;;;;10.67;3.37;;;;;;;;;;4990825;28;20896;-70
2023/03/25 08:55:10;;;;;;;9.10;2.87;;;;;;;;;;4984926;28;20629;-69
2023/03/25 08:57:36;;;;;;;11.17;2.43;;;;;;;;;;4988455;28;20444;-70
2023/03/25 09:00:04;;;;;;;10.53;2.70;;;;;;;;;;4989492;28;20235;-70
2023/03/25 09:02:29;;;;;;;7.40;2.67;;;;;;;;;;4990281;28;20448;-71
2023/03/25 09:04:55;;;;;;;10.03;2.67;;;;;;;;;;4985529;28;20803;-70
2023/03/25 09:07:22;;;;;;;9.13;2.53;;;;;;;;;;4986670;28;20221;-71
2023/03/25 09:09:47;;;;;;;12.97;3.90;;;;;;;;;;4995002;28;20186;-70
2023/03/25 09:12:12;;;;;;;10.80;2.90;;;;;;;;;;4989829;28;20455;-71
2023/03/25 09:14:37;;;;;;;18.57;3.40;;;;;;;;;;4976653;28;20247;-71
2023/03/25 09:17:05;;;;;;;11.63;2.47;;;;;;;;;;4999965;28;20648;-70
2023/03/25 09:19:30;;;;;;;12.77;2.33;;;;;;;;;;4990328;28;20189;-71
2023/03/25 09:21:55;;;;;;;15.57;2.90;;;;;;;;;;4983155;28;20812;-71
2023/03/25 09:24:22;;;;;;;10.40;2.13;;;;;;;;;;4980923;28;20202;-71
2023/03/25 09:26:47;;;;;;;13.40;2.70;;;;;;;;;;4990313;28;20186;-70
2023/03/25 09:29:13;;;;;;;11.63;2.47;;;;;;;;;;4990371;28;20427;-71
2023/03/25 09:31:38;;;;;;;7.87;2.20;;;;;;;;;;4998957;28;20691;-70
2023/03/25 09:34:04;;;;;;;11.03;2.57;;;;;;;;;;5006254;28;20217;-71
2023/03/25 09:36:30;;;;;;;14.97;2.80;;;;;;;;;;5004264;28;20196;-70
2023/03/25 09:38:56;;;;;;;9.77;2.97;;;;;;;;;;4981737;28;20240;-70
2023/03/25 09:41:24;;;;;;;22.07;3.60;;;;;;;;;;4996431;28;20973;-71
2023/03/25 09:44:24;;;;;;;10.90;2.70;;;;;;;;;;5000115;28;20205;-71
2023/03/25 09:46:50;;;;;;;11.90;2.33;;;;;;;;;;4916279;29;20592;-71
2023/03/25 09:49:18;;;;;;;13.07;2.50;;;;;;;;;;4969332;28;20451;-71
2023/03/25 09:51:45;;;;;;;23.37;4.10;;;;;;;;;;4997421;28;20178;-71
2023/03/25 09:54:22;;;;;;;10.87;2.83;;;;;;;;;;4997300;28;20550;-71
2023/03/25 09:56:49;;;;;;;10.00;3.33;;;;;;;;;;4989216;28;20506;-71
2023/03/25 09:59:17;;;;;;;10.13;2.40;;;;;;;;;;4995567;28;20428;-69
2023/03/25 10:01:48;;;;;;;13.50;3.20;;;;;;;;;;4991140;28;20464;-70
2023/03/25 10:04:32;;;;;;;14.87;3.10;;;;;;;;;;4992952;28;20432;-69
2023/03/25 10:06:57;;;;;;;15.07;3.40;;;;;;;;;;4987541;28;20448;-69
2023/03/25 10:09:49;;;;;;;14.50;2.73;;;;;;;;;;4981546;28;20424;-71
2023/03/25 10:12:21;;;;;;;15.57;2.60;;;;;;;;;;4988256;28;20228;-71
2023/03/25 10:14:54;;;;;;;19.00;3.40;;;;;;;;;;4994470;28;20536;-71
2023/03/25 10:17:37;;;;;;;13.70;3.20;;;;;;;;;;4986863;28;20436;-72
2023/03/25 10:20:20;;;;;;;11.70;2.40;;;;;;;;;;4985772;28;20428;-71
2023/03/25 10:22:48;;;;;;;13.53;3.57;;;;;;;;;;4983061;28;20511;-72
2023/03/25 10:25:19;;;;;;;17.77;2.70;;;;;;;;;;4995985;28;20440;-71
2023/03/25 10:27:48;;;;;;;8.17;2.63;;;;;;;;;;4998960;28;20432;-71
2023/03/25 10:30:19;;;;;;;12.57;3.73;;;;;;;;;;5003045;28;20563;-71
2023/03/25 10:32:47;;;;;;;16.43;3.10;;;;;;;;;;5004844;28;20521;-71
2023/03/25 10:35:32;;;;;;;15.57;3.13;;;;;;;;;;5005815;28;20472;-71
2023/03/25 10:38:01;;;;;;;16.30;2.70;;;;;;;;;;5006501;28;20416;-70
2023/03/25 10:40:32;;;;;;;7.77;2.27;;;;;;;;;;5003768;28;20420;-71
2023/03/25 10:43:00;;;;;;;12.70;3.43;;;;;;;;;;5007561;28;20431;-70
2023/03/25 10:45:27;;;;;;;11.20;3.47;;;;;;;;;;5006131;28;20424;-71
2023/03/25 10:47:54;;;;;;;12.77;3.00;;;;;;;;;;5017896;23;20435;-73
2023/03/25 10:50:20;;;;;;;12.93;2.87;;;;;;;;;;5011459;28;20439;-73
2023/03/25 10:52:47;;;;;;;5.53;1.80;;;;;;;;;;5019544;28;20427;-73
2023/03/25 10:55:24;;;;;;;9.90;2.00;;;;;;;;;;5016546;28;20470;-74
2023/03/25 10:57:50;;;;;;;9.70;2.30;;;;;;;;;;5020501;28;20589;-73
2023/03/25 11:00:19;;;;;;;12.73;2.50;;;;;;;;;;5018475;28;20411;-73
2023/03/25 11:02:45;;;;;;;15.93;3.20;;;;;;;;;;5020746;28;20234;-73
2023/03/25 11:05:15;;;;;;;12.47;2.83;;;;;;;;;;5019227;28;20419;-73
2023/03/25 11:07:42;;;;;;;11.83;2.90;;;;;;;;;;5019094;28;20414;-73
2023/03/25 11:10:07;;;;;;;13.03;2.40;;;;;;;;;;5018822;28;20428;-74
2023/03/25 11:12:33;;;;;;;14.73;2.90;;;;;;;;;;5020437;28;20481;-73
2023/03/25 11:15:00;;;;;;;10.40;1.80;;;;;;;;;;5020390;28;20678;-73
2023/03/25 11:17:26;;;;;;;10.77;2.70;;;;;;;;;;5018478;28;20176;-74
2023/03/25 11:19:51;;;;;;;13.13;2.53;;;;;;;;;;5013703;28;20449;-74
2023/03/25 11:22:30;;;;;;;11.80;2.20;;;;;;;;;;5017953;28;20177;-73
2023/03/25 11:25:01;;;;;;;12.13;3.00;;;;;;;;;;5018558;28;20185;-73
2023/03/25 11:27:27;;;;;;;15.73;2.90;;;;;;;;;;5019498;28;20490;-73
2023/03/25 11:29:55;;;;;;;9.90;2.20;;;;;;;;;;5016862;28;20437;-73
2023/03/25 11:32:30;;;;;;;12.90;2.90;;;;;;;;;;5018328;28;20439;-73
2023/03/25 11:34:55;;;;;;;19.33;3.20;;;;;;;;;;5019442;28;20468;-74
2023/03/25 11:37:23;;;;;;;11.53;2.50;;;;;;;;;;5019718;28;20423;-73
2023/03/25 11:39:54;;;;;;;10.90;2.70;;;;;;;;;;5017371;28;20204;-74
2023/03/25 11:42:27;;;;;;;14.73;3.00;;;;;;;;;;5018461;28;20444;-74
2023/03/25 11:44:53;;;;;;;17.83;2.60;;;;;;;;;;5018243;28;20420;-74
2023/03/25 11:47:24;;;;;;;16.20;2.40;;;;;;;;;;5018739;28;20419;-73
2023/03/25 11:49:51;;;;;;;17.73;3.30;;;;;;;;;;5018367;28;21060;-74
2023/03/25 11:52:21;;;;;;;12.50;2.70;;;;;;;;;;5017362;28;20418;-73
2023/03/25 11:54:46;;;;;;;11.10;2.97;;;;;;;;;;5019497;28;20451;-73
2023/03/25 11:57:17;;;;;;;12.57;2.90;;;;;;;;;;5016145;28;20795;-74
2023/03/25 11:59:44;;;;;;;14.40;3.23;;;;;;;;;;5019296;28;20197;-74
2023/03/25 12:02:28;;;;;;;25.97;3.60;;;;;;;;;;5018958;28;20415;-73
2023/03/25 12:05:01;;;;;;;11.50;2.83;;;;;;;;;;5020321;28;20506;-74
2023/03/25 12:07:27;;;;;;;11.73;2.90;;;;;;;;;;5017740;28;20419;-74
2023/03/25 12:09:54;;;;;;;14.30;2.70;;;;;;;;;;5018872;28;20856;-74
2023/03/25 12:12:37;;;;;;;19.33;3.70;;;;;;;;;;5019345;28;20211;-73
2023/03/25 12:15:04;;;;;;;12.83;2.80;;;;;;;;;;5017721;28;20459;-73
2023/03/25 12:17:35;;;;;;;14.67;3.43;;;;;;;;;;5015758;28;20470;-74
2023/03/25 12:20:00;;;;;;;9.97;3.00;;;;;;;;;;5018036;28;20431;-73
2023/03/25 12:22:44;;;;;;;7.00;2.93;;;;;;;;;;5018562;28;20419;-73
2023/03/25 12:25:10;;;;;;;11.73;2.87;;;;;;;;;;5019820;28;20188;-74
2023/03/25 12:27:35;;;;;;;14.13;3.73;;;;;;;;;;5017643;28;20795;-74
2023/03/25 12:30:22;;;;;;;9.07;2.87;;;;;;;;;;5018114;28;20184;-74
2023/03/25 12:32:51;;;;;;;13.03;2.33;;;;;;;;;;5018915;28;20171;-74
2023/03/25 12:35:25;;;;;;;8.67;2.47;;;;;;;;;;5018320;28;20517;-74
2023/03/25 12:38:03;;;;;;;9.53;2.07;;;;;;;;;;5013347;28;20445;-74
2023/03/25 12:40:37;;;;;;;11.07;2.30;;;;;;;;;;5017408;28;20484;-74
2023/03/25 12:43:03;;;;;;;7.03;2.30;;;;;;;;;;5019329;28;20417;-74
2023/03/25 12:45:41;;;;;;;10.23;2.10;;;;;;;;;;5018920;28;20434;-74
2023/03/25 12:48:09;;;;;;;8.67;2.30;;;;;;;;;;5016231;28;20439;-73
2023/03/25 12:50:34;;;;;;;14.00;2.30;;;;;;;;;;5018627;28;20424;-73
2023/03/25 12:53:18;;;;;;;5.60;1.57;;;;;;;;;;5017733;28;20412;-72
2023/03/25 12:55:44;;;;;;;7.87;2.27;;;;;;;;;;5017060;28;20250;-72
2023/03/25 12:58:15;;;;;;;11.90;2.43;;;;;;;;;;5015334;28;20432;-72
2023/03/25 13:00:40;;;;;;;7.70;2.30;;;;;;;;;;5019132;28;20204;-72
2023/03/25 13:03:24;;;;;;;8.83;2.20;;;;;;;;;;5017269;28;20944;-71
2023/03/25 13:05:49;;;;;;;11.67;1.97;;;;;;;;;;5016651;28;20239;-72
2023/03/25 13:08:17;;;;;;;7.83;2.03;;;;;;;;;;5018046;28;20431;-72
2023/03/25 13:10:46;;;;;;;10.90;2.20;;;;;;;;;;5019055;28;20183;-72
2023/03/25 13:13:23;;;;;;;7.13;2.10;;;;;;;;;;5017360;28;20424;-71
2023/03/25 13:15:57;;;;;;;9.20;2.07;;;;;;;;;;5020459;28;20461;-71
2023/03/25 13:18:22;;;;;;;7.80;2.30;;;;;;;;;;5020080;28;20434;-72
2023/03/25 13:20:57;;;;;;;17.07;3.30;;;;;;;;;;5020224;28;21037;-71
2023/03/25 13:23:24;;;;;;;15.13;2.73;;;;;;;;;;5019476;28;20668;-71
2023/03/25 13:25:50;;;;;;;12.40;2.90;;;;;;;;;;5020080;28;20412;-72
2023/03/25 13:28:17;;;;;;;10.43;2.57;;;;;;;;;;5015788;28;20462;-71
2023/03/25 13:30:44;;;;;;;11.27;2.30;;;;;;;;;;5015561;28;20414;-71
2023/03/25 13:33:13;;;;;;;4.90;1.97;;;;;;;;;;5019621;28;20519;-70
2023/03/25 13:35:46;;;;;;;7.50;3.03;;;;;;;;;;5019221;28;20465;-72
2023/03/25 13:38:18;;;;;;;6.13;1.73;;;;;;;;;;5016393;28;20444;-71
2023/03/25 13:40:46;;;;;;;8.10;1.93;;;;;;;;;;5018201;28;21765;-71
2023/03/25 13:43:30;;;;;;;7.80;2.20;;;;;;;;;;5019455;28;20530;-71
2023/03/25 13:46:05;;;;;;;9.43;2.80;;;;;;;;;;5014395;28;20438;-71
2023/03/25 13:48:31;;;;;;;11.40;1.97;;;;;;;;;;5014611;28;20495;-71
2023/03/25 13:50:58;;;;;;;8.70;2.20;;;;;;;;;;5019097;28;20462;-70
2023/03/25 13:53:23;;;;;;;9.37;2.20;;;;;;;;;;5012878;28;20559;-71
2023/03/25 13:56:00;;;;;;;4.87;1.60;;;;;;;;;;5007448;28;20474;-70
2023/03/25 13:58:40;;;;;;;10.80;2.37;;;;;;;;;;5008661;28;20285;-71
2023/03/25 14:01:06;;;;;;;7.30;2.00;;;;;;;;;;5017769;28;20427;-69
2023/03/25 14:03:46;;;;;;;10.50;2.13;;;;;;;;;;5019050;28;20424;-70
2023/03/25 14:06:29;;;;;;;9.90;1.97;;;;;;;;;;5016702;28;20273;-70
2023/03/25 14:09:02;;;;;;;7.50;2.10;;;;;;;;;;5013239;28;20945;-71
2023/03/25 14:11:36;;;;;;;7.77;2.00;;;;;;;;;;5017654;28;20451;-71
2023/03/25 14:14:05;;;;;;;7.17;1.77;;;;;;;;;;5011555;28;20480;-70
2023/03/25 14:16:34;;;;;;;7.73;1.83;;;;;;;;;;5013701;28;20420;-71
2023/03/25 14:19:01;;;;;;;8.93;2.07;;;;;;;;;;5006284;28;20881;-70
2023/03/25 14:21:53;;;;;;;9.03;1.77;;;;;;;;;;5012994;28;20827;-70
2023/03/25 14:24:18;;;;;;;11.43;2.80;;;;;;;;;;5007099;28;20949;-71
2023/03/25 14:26:47;;;;;;;6.53;1.60;;;;;;;;;;5018287;28;20427;-70
2023/03/25 14:29:18;;;;;;;5.63;1.80;;;;;;;;;;5016250;28;20217;-69
2023/03/25 14:31:58;;;;;;;8.83;2.10;;;;;;;;;;5012598;28;20435;-70
2023/03/25 14:34:24;;;;;;;8.87;1.80;;;;;;;;;;5014357;28;20996;-70
2023/03/25 14:36:50;;;;;;;7.80;1.97;;;;;;;;;;5019182;28;20412;-70
2023/03/25 14:39:28;;;;;;;6.97;1.70;;;;;;;;;;5016070;28;20458;-69
2023/03/25 14:41:54;;;;;;;7.33;1.80;;;;;;;;;;5016277;28;20867;-70